createdAt,value
2019-02-25T07:17:43.153Z,6.23
2019-02-25T07:20:14.457Z,1.33
2019-02-25T07:22:41.027Z,0.83
2019-02-25T07:25:15.344Z,1.07
2019-02-25T07:27:42.039Z,0.60
2019-02-25T07:30:11.081Z,0.60
2019-02-25T07:32:43.452Z,0.43
2019-02-25T07:35:02.206Z,0.77
2019-02-25T07:37:31.211Z,2.47
2019-02-25T07:39:53.086Z,0.67
2019-02-25T07:42:17.820Z,1.57
2019-02-25T07:44:46.713Z,1.77
2019-02-25T07:47:28.221Z,1.47
2019-02-25T07:49:58.435Z,1.00
2019-02-25T07:52:15.445Z,1.40
2019-02-25T07:54:47.605Z,0.73
2019-02-25T07:57:12.399Z,0.63
2019-02-25T07:59:23.870Z,0.50
2019-02-25T08:01:48.675Z,1.63
2019-02-25T08:04:20.438Z,1.97
2019-02-25T08:06:37.776Z,0.40
2019-02-25T08:09:01.044Z,0.50
2019-02-25T08:11:33.081Z,0.43
2019-02-25T08:13:49.991Z,0.67
2019-02-25T08:16:04.217Z,0.50
2019-02-25T08:18:18.147Z,0.40
2019-02-25T08:20:42.080Z,0.40
2019-02-25T08:23:14.015Z,0.40
2019-02-25T08:25:38.711Z,0.40
2019-02-25T08:28:14.261Z,0.53
2019-02-25T08:30:28.939Z,0.60
2019-02-25T08:33:09.786Z,0.53
2019-02-25T08:36:00.288Z,0.50
2019-02-25T08:38:24.262Z,0.60
2019-02-25T08:41:04.830Z,0.50
2019-02-25T08:43:27.426Z,2.60
2019-02-25T08:45:43.960Z,0.60
2019-02-25T08:48:13.369Z,0.63
2019-02-25T08:50:20.879Z,0.67
2019-02-25T08:52:28.123Z,1.23
2019-02-25T08:54:36.608Z,0.50
2019-02-25T08:56:44.662Z,0.40
2019-02-25T08:58:51.900Z,1.77
2019-02-25T09:00:59.190Z,0.50
2019-02-25T09:03:06.383Z,0.40
2019-02-25T09:05:14.809Z,0.40
2019-02-25T09:07:22.210Z,0.40
2019-02-25T09:09:30.137Z,0.93
2019-02-25T09:11:38.758Z,0.50
2019-02-25T09:13:46.293Z,0.40
2019-02-25T09:15:53.527Z,0.40
2019-02-25T09:17:57.831Z,0.83
2019-02-25T09:20:05.428Z,0.47
2019-02-25T09:22:12.589Z,0.40
2019-02-25T09:24:20.068Z,1.13
2019-02-25T09:26:37.188Z,0.90
2019-02-25T09:28:44.673Z,0.30
2019-02-25T09:30:52.017Z,0.83
2019-02-25T09:33:00.116Z,0.40
2019-02-25T09:35:07.712Z,0.30
2019-02-25T09:37:14.669Z,0.37
2019-02-25T09:39:22.066Z,0.30
2019-02-25T09:41:31.333Z,0.27
2019-02-25T09:43:38.623Z,0.33
2019-02-25T09:45:46.642Z,0.43
2019-02-25T09:47:54.094Z,0.30
2019-02-25T09:50:15.044Z,0.40
2019-02-25T09:52:22.359Z,0.20
2019-02-25T09:54:30.006Z,0.40
2019-02-25T09:56:37.657Z,0.57
2019-02-25T09:58:44.850Z,0.50
2019-02-25T10:00:52.195Z,0.20
2019-02-25T10:02:59.498Z,0.50
2019-02-25T10:05:08.854Z,0.40
2019-02-25T10:07:16.329Z,0.30
2019-02-25T10:09:29.812Z,0.30
2019-02-25T10:11:33.616Z,0.40
2019-02-25T10:13:43.162Z,0.30
2019-02-25T10:15:50.857Z,0.30
2019-02-25T10:17:58.437Z,0.27
2019-02-25T10:20:06.032Z,0.30
2019-02-25T10:22:13.752Z,0.40
2019-02-25T10:24:21.112Z,0.30
2019-02-25T10:26:29.537Z,0.50
2019-02-25T10:28:37.468Z,0.30
2019-02-25T10:30:52.547Z,0.33
2019-02-25T10:32:57.785Z,0.30
2019-02-25T10:35:05.849Z,0.30
2019-02-25T10:37:15.095Z,0.30
2019-02-25T10:39:22.455Z,0.40
2019-02-25T10:41:29.713Z,0.20
2019-02-25T10:43:38.373Z,0.30
2019-02-25T10:45:46.011Z,0.60
2019-02-25T10:47:58.251Z,0.30
2019-02-25T10:50:05.254Z,0.20
2019-02-25T10:52:12.951Z,0.30
2019-02-25T10:54:23.157Z,0.33
2019-02-25T10:56:37.286Z,0.87
2019-02-25T10:58:44.624Z,0.30
2019-02-25T11:00:51.974Z,0.20
2019-02-25T11:02:59.154Z,0.20
2019-02-25T11:05:07.700Z,0.30
2019-02-25T11:07:15.276Z,0.40
2019-02-25T11:09:46.091Z,0.40
2019-02-25T11:11:55.456Z,0.60
2019-02-25T11:14:05.013Z,0.30
2019-02-25T11:16:13.930Z,0.50
2019-02-25T11:18:22.443Z,0.57
2019-02-25T11:20:31.839Z,0.27
2019-02-25T11:22:39.816Z,0.20
2019-02-25T11:24:49.809Z,0.73
2019-02-25T11:26:57.342Z,0.40
2019-02-25T11:29:08.148Z,0.60
2019-02-25T11:31:15.818Z,0.30
2019-02-25T11:33:25.185Z,0.33
2019-02-25T11:35:34.174Z,0.30
2019-02-25T11:37:41.363Z,0.23
2019-02-25T11:39:48.587Z,0.27
2019-02-25T11:42:03.299Z,0.30
2019-02-25T11:44:11.356Z,0.30
2019-02-25T11:46:19.457Z,0.77
2019-02-25T11:48:26.772Z,0.20
2019-02-25T11:50:34.318Z,0.20
2019-02-25T11:52:41.692Z,0.40
2019-02-25T11:54:48.923Z,0.50
2019-02-25T11:56:57.717Z,0.30
2019-02-25T11:59:05.827Z,0.47
2019-02-25T12:01:13.953Z,0.30
2019-02-25T12:03:21.276Z,0.40
2019-02-25T12:05:28.589Z,1.60
2019-02-25T12:07:36.061Z,0.30
2019-02-25T12:09:43.097Z,0.30
2019-02-25T12:11:50.484Z,0.20
2019-02-25T12:13:57.798Z,0.30
2019-02-25T12:16:04.973Z,0.20
2019-02-25T12:18:13.076Z,0.50
2019-02-25T12:20:20.818Z,0.30
2019-02-25T12:22:28.029Z,0.30
2019-02-25T12:24:36.929Z,0.20
2019-02-25T12:26:44.279Z,0.20
2019-02-25T12:28:51.970Z,0.40
2019-02-25T12:30:59.195Z,0.20
2019-02-25T12:33:06.566Z,0.30
2019-02-25T12:35:14.095Z,0.10
2019-02-25T12:37:21.585Z,0.30
2019-02-25T12:39:30.313Z,0.30
2019-02-25T12:41:39.310Z,0.30
2019-02-25T12:43:50.669Z,0.30
2019-02-25T12:45:57.869Z,0.30
2019-02-25T12:48:06.146Z,0.33
2019-02-25T12:50:14.883Z,0.20
2019-02-25T12:52:23.037Z,0.30
2019-02-25T12:54:55.543Z,0.30
2019-02-25T12:57:02.982Z,0.30
2019-02-25T12:59:10.385Z,0.30
2019-02-25T13:01:19.251Z,0.30
2019-02-25T13:03:26.408Z,0.73
2019-02-25T13:05:35.153Z,0.43
2019-02-25T13:07:42.504Z,0.40
2019-02-25T13:09:51.186Z,0.43
2019-02-25T13:11:59.387Z,0.30
2019-02-25T13:14:07.595Z,0.30
2019-02-25T13:16:15.403Z,0.40
2019-02-25T13:18:22.523Z,0.30
2019-02-25T13:20:29.947Z,0.30
2019-02-25T13:22:37.199Z,0.50
2019-02-25T13:24:44.716Z,0.40
2019-02-25T13:26:51.944Z,0.30
2019-02-25T13:29:00.700Z,1.23
2019-02-25T13:31:10.167Z,0.30
2019-02-25T13:33:18.409Z,0.40
2019-02-25T13:35:25.803Z,0.40
2019-02-25T13:37:33.032Z,0.40
2019-02-25T13:39:40.255Z,0.30
2019-02-25T13:41:47.689Z,0.60
2019-02-25T13:43:54.832Z,0.40
2019-02-25T13:46:03.351Z,0.30
2019-02-25T13:48:10.563Z,0.47
2019-02-25T13:50:18.109Z,2.33
2019-02-25T13:52:25.253Z,0.50
2019-02-25T13:54:32.608Z,0.30
2019-02-25T13:56:40.332Z,0.20
2019-02-25T13:58:47.777Z,0.20
2019-02-25T14:00:54.966Z,0.70
2019-02-25T14:03:03.375Z,1.50
2019-02-25T14:05:12.190Z,0.30
2019-02-25T14:07:19.978Z,0.20
2019-02-25T14:09:27.978Z,0.30
2019-02-25T14:11:35.576Z,0.30
2019-02-25T14:13:45.036Z,0.20
2019-02-25T14:15:51.691Z,0.30
2019-02-25T14:17:59.989Z,1.00
2019-02-25T14:20:11.887Z,0.20
2019-02-25T14:22:20.816Z,0.30
2019-02-25T14:24:28.870Z,0.23
2019-02-25T14:26:45.350Z,0.30
2019-02-25T14:28:53.823Z,0.40
2019-02-25T14:31:01.622Z,0.40
2019-02-25T14:33:12.643Z,0.30
2019-02-25T14:35:28.514Z,0.30
2019-02-25T14:37:42.266Z,1.70
2019-02-25T14:40:00.679Z,0.37
2019-02-25T14:42:16.538Z,0.40
2019-02-25T14:44:29.825Z,0.40
2019-02-25T14:46:38.108Z,0.43
2019-02-25T14:48:45.752Z,1.37
2019-02-25T14:50:56.033Z,0.40
2019-02-25T14:53:08.414Z,0.27
2019-02-25T14:55:18.586Z,0.30
2019-02-25T14:57:26.825Z,0.40
2019-02-25T14:59:35.013Z,1.93
2019-02-25T15:01:42.790Z,0.30
2019-02-25T15:03:50.701Z,0.40
2019-02-25T15:05:59.244Z,0.43
2019-02-25T15:08:13.534Z,0.30
2019-02-25T15:10:20.979Z,1.87
2019-02-25T15:12:29.412Z,0.30
2019-02-25T15:14:39.588Z,0.97
2019-02-25T15:17:00.946Z,0.40
2019-02-25T15:19:15.132Z,0.20
2019-02-25T15:21:23.476Z,0.20
2019-02-25T15:23:31.379Z,0.40
2019-02-25T15:25:48.457Z,0.20
2019-02-25T15:28:07.126Z,0.30
2019-02-25T15:30:31.133Z,0.50
2019-02-25T15:32:41.569Z,0.47
2019-02-25T15:35:07.412Z,0.50
2019-02-25T15:37:20.861Z,0.83
2019-02-25T15:39:34.776Z,0.30
2019-02-25T15:41:44.076Z,0.30
2019-02-25T15:44:00.233Z,0.60
2019-02-25T15:46:10.429Z,0.57
2019-02-25T15:48:18.735Z,0.97
2019-02-25T15:50:26.046Z,0.40
2019-02-25T15:52:39.908Z,0.20
2019-02-25T15:54:43.788Z,0.20
2019-02-25T15:56:51.241Z,0.40
2019-02-25T15:58:59.358Z,0.20
2019-02-25T16:01:08.136Z,1.63
2019-02-25T16:03:20.200Z,0.20
2019-02-25T16:05:29.545Z,3.50
2019-02-25T16:07:41.501Z,1.37
2019-02-25T16:09:50.134Z,0.27
2019-02-25T16:11:59.030Z,0.30
2019-02-25T16:14:09.128Z,1.00
2019-02-25T16:16:17.119Z,1.37
2019-02-25T16:18:27.846Z,0.87
2019-02-25T16:20:38.722Z,0.57
2019-02-25T16:22:45.911Z,0.43
2019-02-25T16:24:53.637Z,0.53
2019-02-25T16:27:02.594Z,0.47
2019-02-25T16:29:11.809Z,0.20
2019-02-25T16:31:20.173Z,0.63
2019-02-25T16:33:28.313Z,0.30
2019-02-25T16:35:38.566Z,0.77
2019-02-25T16:37:45.847Z,0.43
2019-02-25T16:39:55.945Z,0.23
2019-02-25T16:42:03.419Z,0.30
2019-02-25T16:44:11.043Z,0.37
2019-02-25T16:46:20.353Z,0.20
2019-02-25T16:48:30.390Z,0.30
2019-02-25T16:50:39.817Z,0.10
2019-02-25T16:52:49.333Z,0.10
2019-02-25T16:54:57.010Z,0.20
2019-02-25T16:57:16.251Z,1.10
2019-02-25T16:59:25.043Z,0.30
2019-02-25T17:01:34.963Z,1.87
2019-02-25T17:03:48.225Z,0.30
2019-02-25T17:05:55.759Z,0.40
2019-02-25T17:08:14.530Z,0.30
2019-02-25T17:10:29.170Z,0.20
2019-02-25T17:12:35.662Z,0.30
2019-02-25T17:14:56.709Z,1.40
2019-02-25T17:17:06.238Z,1.13
2019-02-25T17:19:14.980Z,0.27
2019-02-25T17:21:24.008Z,0.50
2019-02-25T17:24:07.381Z,3.30
2019-02-25T17:26:38.522Z,0.97
2019-02-25T17:29:08.247Z,0.57
2019-02-25T17:31:22.900Z,0.30
2019-02-25T17:33:38.493Z,1.60
2019-02-25T17:35:47.626Z,0.30
2019-02-25T17:38:10.723Z,0.20
2019-02-25T17:43:09.547Z,0.20
2019-02-25T17:45:27.722Z,0.67
2019-02-25T17:47:39.225Z,0.50
2019-02-25T17:49:50.652Z,0.20
2019-02-25T17:52:01.725Z,0.20
2019-02-25T17:54:12.497Z,0.67
2019-02-25T17:56:22.555Z,0.20
2019-02-25T17:58:31.600Z,0.50
2019-02-25T18:00:42.409Z,0.30
2019-02-25T18:02:52.923Z,0.20
2019-02-25T18:05:02.553Z,0.30
2019-02-25T18:07:09.948Z,0.20
2019-02-25T18:09:18.262Z,0.20
2019-02-25T18:11:30.663Z,0.40
2019-02-25T18:13:42.961Z,0.30
2019-02-25T18:15:53.677Z,0.20
2019-02-25T18:18:07.302Z,0.30
2019-02-25T18:20:23.276Z,0.77
2019-02-25T18:22:38.573Z,0.50
2019-02-25T18:24:53.698Z,2.30
2019-02-25T18:27:01.069Z,0.33
2019-02-25T18:29:09.420Z,2.13
2019-02-25T18:31:22.534Z,0.60
2019-02-25T18:33:38.153Z,0.23
2019-02-25T18:35:45.793Z,1.23
2019-02-25T18:37:55.188Z,0.73
2019-02-25T18:40:02.646Z,0.20
2019-02-25T18:42:16.291Z,0.70
2019-02-25T18:44:25.516Z,0.47
2019-02-25T18:46:32.764Z,1.37
2019-02-25T18:48:42.467Z,0.30
2019-02-25T18:50:52.187Z,1.40
2019-02-25T18:53:06.835Z,0.30
2019-02-25T18:55:18.592Z,2.23
2019-02-25T18:57:34.980Z,2.77
2019-02-25T18:59:57.063Z,0.67
2019-02-25T19:02:12.826Z,2.93
2019-02-25T19:04:28.579Z,3.37
2019-02-25T19:06:43.584Z,3.87
2019-02-25T19:08:58.404Z,3.07
2019-02-25T19:11:12.877Z,6.93
2019-02-25T19:13:27.202Z,5.53
2019-02-25T19:15:37.403Z,2.37
2019-02-25T19:17:52.158Z,2.50
2019-02-25T19:20:04.049Z,4.27
2019-02-25T19:22:13.192Z,3.97
2019-02-25T19:24:21.131Z,2.87
2019-02-25T19:26:28.379Z,1.43
2019-02-25T19:28:45.973Z,3.07
2019-02-25T19:30:57.490Z,2.33
2019-02-25T19:33:10.895Z,5.40
2019-02-25T19:35:21.868Z,2.37
2019-02-25T19:37:32.947Z,1.17
2019-02-25T19:39:51.144Z,1.13
2019-02-25T19:42:00.603Z,6.67
2019-02-25T19:44:10.654Z,2.07
2019-02-25T19:46:19.712Z,2.70
2019-02-25T19:48:29.391Z,1.60
2019-02-25T19:50:47.757Z,8.63
2019-02-25T19:52:46.653Z,2.67
2019-02-25T19:54:54.366Z,1.60
2019-02-25T19:57:16.593Z,0.63
2019-02-25T19:59:28.696Z,2.07
2019-02-25T20:01:45.233Z,1.80
2019-02-25T20:04:12.173Z,2.90
2019-02-25T20:06:21.188Z,2.53
2019-02-25T20:08:29.467Z,2.67
2019-02-25T20:10:46.492Z,5.50
2019-02-25T20:12:59.449Z,4.33
2019-02-25T20:15:15.505Z,3.30
2019-02-25T20:17:30.502Z,4.23
2019-02-25T20:19:45.636Z,3.30
2019-02-25T20:21:53.073Z,2.23
2019-02-25T20:24:03.277Z,4.40
2019-02-25T20:26:13.232Z,5.90
2019-02-25T20:28:26.790Z,5.13
2019-02-25T20:30:46.807Z,8.87
2019-02-25T20:32:54.194Z,7.63
2019-02-25T20:35:09.504Z,7.27
2019-02-25T20:37:29.379Z,9.77
2019-02-25T20:39:44.821Z,9.67
2019-02-25T20:41:54.257Z,10.70
2019-02-25T20:44:07.866Z,8.83
2019-02-25T20:46:15.260Z,7.03
2019-02-25T20:48:22.718Z,7.53
2019-02-25T20:50:29.981Z,4.80
2019-02-25T20:52:38.731Z,6.37
2019-02-25T20:54:52.308Z,5.73
2019-02-25T20:57:14.298Z,9.27
2019-02-25T20:59:28.080Z,9.20
2019-02-25T21:01:37.130Z,6.20
2019-02-25T21:03:50.361Z,7.00
2019-02-25T21:06:04.495Z,5.60
2019-02-25T21:08:23.539Z,3.80
2019-02-25T21:10:35.369Z,3.40
2019-02-25T21:12:43.185Z,6.73
2019-02-25T21:14:50.630Z,2.93
2019-02-25T21:17:00.467Z,4.53
2019-02-25T21:19:10.171Z,6.27
2019-02-25T21:21:17.266Z,9.77
2019-02-25T21:23:24.609Z,2.87
2019-02-25T21:25:36.746Z,5.03
2019-02-25T21:27:44.720Z,3.37
2019-02-25T21:29:53.096Z,4.10
2019-02-25T21:32:02.319Z,6.10
2019-02-25T21:34:15.269Z,5.37
2019-02-25T21:36:19.912Z,2.00
2019-02-25T21:38:30.249Z,2.40
2019-02-25T21:40:54.906Z,2.93
2019-02-25T21:43:05.568Z,1.60
2019-02-25T21:45:16.031Z,3.80
2019-02-25T21:47:26.342Z,9.27
2019-02-25T21:49:38.815Z,4.27
2019-02-25T21:51:50.745Z,4.03
2019-02-25T21:53:59.984Z,2.17
2019-02-25T21:56:08.638Z,3.67
2019-02-25T21:58:16.806Z,2.97
2019-02-25T22:00:34.518Z,2.53
2019-02-25T22:02:50.410Z,3.93
2019-02-25T22:05:01.520Z,5.33
2019-02-25T22:09:45.883Z,2.30
2019-02-25T22:12:04.878Z,2.00
2019-02-25T22:14:14.118Z,1.40
2019-02-25T22:16:23.481Z,1.73
2019-02-25T22:18:32.431Z,2.60
2019-02-25T22:20:42.722Z,3.83
2019-02-25T22:22:54.419Z,5.13
2019-02-25T22:25:01.156Z,2.47
2019-02-25T22:27:07.333Z,4.70
2019-02-25T22:29:15.319Z,1.53
2019-02-25T22:31:22.622Z,1.70
2019-02-25T22:33:30.740Z,1.97
2019-02-25T22:35:40.587Z,2.53
2019-02-25T22:37:52.052Z,3.10
2019-02-25T22:39:57.435Z,3.10
2019-02-25T22:42:05.688Z,1.23
2019-02-25T22:44:14.843Z,4.03
2019-02-25T22:46:23.520Z,3.93
2019-02-25T22:48:32.014Z,1.43
2019-02-25T22:50:39.722Z,1.63
2019-02-25T22:52:46.912Z,3.93
2019-02-25T22:54:54.967Z,3.27
2019-02-25T22:57:02.285Z,2.77
2019-02-25T22:59:09.269Z,4.30
2019-02-25T23:01:18.220Z,3.10
2019-02-25T23:03:27.508Z,4.87
2019-02-25T23:05:34.040Z,2.53
2019-02-25T23:07:43.479Z,2.40
2019-02-25T23:09:52.315Z,3.03
2019-02-25T23:12:00.765Z,3.07
2019-02-25T23:14:09.457Z,3.27
2019-02-25T23:16:18.697Z,1.43
2019-02-25T23:18:28.110Z,1.37
2019-02-25T23:20:35.480Z,3.33
2019-02-25T23:22:42.662Z,1.47
2019-02-25T23:24:49.946Z,1.10
2019-02-25T23:26:59.537Z,1.97
2019-02-25T23:29:06.841Z,1.90
2019-02-25T23:31:15.099Z,4.30
2019-02-25T23:33:24.533Z,0.83
2019-02-25T23:35:32.891Z,2.07
2019-02-25T23:37:41.032Z,0.90
2019-02-25T23:39:48.955Z,1.80
2019-02-25T23:41:56.964Z,0.90
2019-02-25T23:44:04.281Z,2.47
2019-02-25T23:46:11.968Z,2.93
2019-02-25T23:48:20.259Z,1.07
2019-02-25T23:50:29.755Z,1.87
2019-02-25T23:52:37.817Z,1.30
2019-02-25T23:54:47.120Z,1.03
2019-02-25T23:56:55.101Z,1.50
2019-02-25T23:59:02.698Z,1.57
